sensor_id;sensor_type;location;lat;lon;timestamp;P1;durP1;ratioP1;P2;durP2;ratioP2
48215;SDS011;34005;48.844;10.098;2023-03-03T00:00:45;40.88;;;24.75;;
48215;SDS011;34005;48.844;10.098;2023-03-03T00:03:14;37.75;;;23.77;;
48215;SDS011;34005;48.844;10.098;2023-03-03T00:05:43;39.13;;;23.33;;
48215;SDS011;34005;48.844;10.098;2023-03-03T00:10:59;40.92;;;24.83;;
48215;SDS011;34005;48.844;10.098;2023-03-03T00:13:29;41.47;;;25.02;;
48215;SDS011;34005;48.844;10.098;2023-03-03T00:16:04;40.65;;;24.17;;
48215;SDS011;34005;48.844;10.098;2023-03-03T00:21:18;36.28;;;21.80;;
48215;SDS011;34005;48.844;10.098;2023-03-03T00:23:54;42.22;;;25.42;;
48215;SDS011;34005;48.844;10.098;2023-03-03T00:26:34;40.05;;;24.13;;
48215;SDS011;34005;48.844;10.098;2023-03-03T00:29:17;42.80;;;26.42;;
48215;SDS011;34005;48.844;10.098;2023-03-03T00:31:52;46.97;;;27.35;;
48215;SDS011;34005;48.844;10.098;2023-03-03T00:34:24;42.55;;;24.30;;
48215;SDS011;34005;48.844;10.098;2023-03-03T00:36:53;37.60;;;23.80;;
48215;SDS011;34005;48.844;10.098;2023-03-03T00:39:25;40.55;;;25.33;;
48215;SDS011;34005;48.844;10.098;2023-03-03T00:41:56;44.03;;;26.13;;
48215;SDS011;34005;48.844;10.098;2023-03-03T00:44:30;43.15;;;25.20;;
48215;SDS011;34005;48.844;10.098;2023-03-03T00:47:22;41.55;;;24.30;;
48215;SDS011;34005;48.844;10.098;2023-03-03T00:50:10;45.25;;;26.00;;
48215;SDS011;34005;48.844;10.098;2023-03-03T00:52:51;40.55;;;24.90;;
48215;SDS011;34005;48.844;10.098;2023-03-03T00:55:25;42.88;;;24.95;;
48215;SDS011;34005;48.844;10.098;2023-03-03T00:57:54;45.45;;;26.30;;
48215;SDS011;34005;48.844;10.098;2023-03-03T01:00:21;45.90;;;26.25;;
48215;SDS011;34005;48.844;10.098;2023-03-03T01:02:49;47.17;;;24.80;;
48215;SDS011;34005;48.844;10.098;2023-03-03T01:05:18;46.38;;;27.25;;
48215;SDS011;34005;48.844;10.098;2023-03-03T01:07:46;47.60;;;27.15;;
48215;SDS011;34005;48.844;10.098;2023-03-03T01:10:14;42.85;;;25.30;;
48215;SDS011;34005;48.844;10.098;2023-03-03T01:12:42;45.78;;;26.45;;
48215;SDS011;34005;48.844;10.098;2023-03-03T01:15:11;43.50;;;26.33;;
48215;SDS011;34005;48.844;10.098;2023-03-03T01:17:40;48.55;;;24.67;;
48215;SDS011;34005;48.844;10.098;2023-03-03T01:20:09;45.47;;;26.83;;
48215;SDS011;34005;48.844;10.098;2023-03-03T01:22:38;49.78;;;28.25;;
48215;SDS011;34005;48.844;10.098;2023-03-03T01:25:06;53.78;;;28.45;;
48215;SDS011;34005;48.844;10.098;2023-03-03T01:27:35;47.05;;;28.23;;
48215;SDS011;34005;48.844;10.098;2023-03-03T01:30:03;46.53;;;28.40;;
48215;SDS011;34005;48.844;10.098;2023-03-03T01:32:32;52.45;;;28.92;;
48215;SDS011;34005;48.844;10.098;2023-03-03T01:35:00;47.25;;;26.88;;
48215;SDS011;34005;48.844;10.098;2023-03-03T01:37:28;51.03;;;28.35;;
48215;SDS011;34005;48.844;10.098;2023-03-03T01:39:55;52.92;;;29.02;;
48215;SDS011;34005;48.844;10.098;2023-03-03T01:42:23;49.80;;;28.83;;
48215;SDS011;34005;48.844;10.098;2023-03-03T01:45:16;50.40;;;28.48;;
48215;SDS011;34005;48.844;10.098;2023-03-03T01:47:47;47.85;;;26.10;;
48215;SDS011;34005;48.844;10.098;2023-03-03T01:50:25;44.85;;;25.75;;
48215;SDS011;34005;48.844;10.098;2023-03-03T01:53:05;40.28;;;24.52;;
48215;SDS011;34005;48.844;10.098;2023-03-03T01:55:40;42.92;;;26.05;;
48215;SDS011;34005;48.844;10.098;2023-03-03T01:58:10;43.95;;;25.27;;
48215;SDS011;34005;48.844;10.098;2023-03-03T02:00:41;40.17;;;25.33;;
48215;SDS011;34005;48.844;10.098;2023-03-03T02:03:13;41.25;;;24.02;;
48215;SDS011;34005;48.844;10.098;2023-03-03T02:05:41;42.95;;;26.13;;
48215;SDS011;34005;48.844;10.098;2023-03-03T02:08:09;49.75;;;28.77;;
48215;SDS011;34005;48.844;10.098;2023-03-03T02:10:42;47.78;;;28.45;;
48215;SDS011;34005;48.844;10.098;2023-03-03T02:13:12;49.40;;;25.85;;
48215;SDS011;34005;48.844;10.098;2023-03-03T02:15:40;48.72;;;27.92;;
48215;SDS011;34005;48.844;10.098;2023-03-03T02:18:08;53.13;;;28.80;;
48215;SDS011;34005;48.844;10.098;2023-03-03T02:20:47;47.45;;;27.83;;
48215;SDS011;34005;48.844;10.098;2023-03-03T02:23:21;50.88;;;29.17;;
48215;SDS011;34005;48.844;10.098;2023-03-03T02:26:00;51.20;;;29.75;;
48215;SDS011;34005;48.844;10.098;2023-03-03T02:28:32;50.67;;;28.40;;
48215;SDS011;34005;48.844;10.098;2023-03-03T02:31:01;42.15;;;26.35;;
48215;SDS011;34005;48.844;10.098;2023-03-03T02:33:29;44.28;;;26.85;;
48215;SDS011;34005;48.844;10.098;2023-03-03T02:35:57;48.83;;;29.10;;
48215;SDS011;34005;48.844;10.098;2023-03-03T02:38:26;42.47;;;27.17;;
48215;SDS011;34005;48.844;10.098;2023-03-03T02:40:58;47.42;;;27.50;;
48215;SDS011;34005;48.844;10.098;2023-03-03T02:43:35;45.85;;;26.73;;
48215;SDS011;34005;48.844;10.098;2023-03-03T02:46:10;48.35;;;27.35;;
48215;SDS011;34005;48.844;10.098;2023-03-03T02:48:37;45.30;;;26.48;;
48215;SDS011;34005;48.844;10.098;2023-03-03T02:51:05;48.63;;;26.50;;
48215;SDS011;34005;48.844;10.098;2023-03-03T02:53:32;49.85;;;27.10;;
48215;SDS011;34005;48.844;10.098;2023-03-03T02:56:01;44.78;;;26.30;;
48215;SDS011;34005;48.844;10.098;2023-03-03T02:58:29;46.03;;;27.90;;
48215;SDS011;34005;48.844;10.098;2023-03-03T03:00:57;45.10;;;26.27;;
48215;SDS011;34005;48.844;10.098;2023-03-03T03:03:24;48.55;;;26.38;;
48215;SDS011;34005;48.844;10.098;2023-03-03T03:05:52;47.58;;;26.58;;
48215;SDS011;34005;48.844;10.098;2023-03-03T03:08:20;46.53;;;28.00;;
48215;SDS011;34005;48.844;10.098;2023-03-03T03:10:47;45.10;;;27.05;;
48215;SDS011;34005;48.844;10.098;2023-03-03T03:13:16;46.20;;;26.15;;
48215;SDS011;34005;48.844;10.098;2023-03-03T03:15:44;47.17;;;26.83;;
48215;SDS011;34005;48.844;10.098;2023-03-03T03:18:12;47.38;;;28.20;;
48215;SDS011;34005;48.844;10.098;2023-03-03T03:20:39;45.42;;;28.52;;
48215;SDS011;34005;48.844;10.098;2023-03-03T03:23:07;46.30;;;28.65;;
48215;SDS011;34005;48.844;10.098;2023-03-03T03:25:35;46.03;;;27.65;;
48215;SDS011;34005;48.844;10.098;2023-03-03T03:28:10;45.15;;;27.33;;
48215;SDS011;34005;48.844;10.098;2023-03-03T03:30:40;44.65;;;26.55;;
48215;SDS011;34005;48.844;10.098;2023-03-03T03:33:07;47.20;;;27.48;;
48215;SDS011;34005;48.844;10.098;2023-03-03T03:35:35;42.80;;;26.02;;
48215;SDS011;34005;48.844;10.098;2023-03-03T03:38:05;46.15;;;27.58;;
48215;SDS011;34005;48.844;10.098;2023-03-03T03:40:33;50.83;;;28.70;;
48215;SDS011;34005;48.844;10.098;2023-03-03T03:43:00;46.90;;;26.70;;
48215;SDS011;34005;48.844;10.098;2023-03-03T03:45:28;49.10;;;28.75;;
48215;SDS011;34005;48.844;10.098;2023-03-03T03:47:57;48.20;;;26.48;;
48215;SDS011;34005;48.844;10.098;2023-03-03T03:50:24;48.47;;;28.80;;
48215;SDS011;34005;48.844;10.098;2023-03-03T03:52:52;46.08;;;28.13;;
48215;SDS011;34005;48.844;10.098;2023-03-03T03:55:20;44.05;;;27.10;;
48215;SDS011;34005;48.844;10.098;2023-03-03T03:57:48;50.38;;;28.58;;
48215;SDS011;34005;48.844;10.098;2023-03-03T04:00:16;46.83;;;29.58;;
48215;SDS011;34005;48.844;10.098;2023-03-03T04:02:44;49.38;;;29.85;;
48215;SDS011;34005;48.844;10.098;2023-03-03T04:05:13;48.08;;;28.50;;
48215;SDS011;34005;48.844;10.098;2023-03-03T04:07:41;48.50;;;29.13;;
48215;SDS011;34005;48.844;10.098;2023-03-03T04:10:09;46.28;;;28.83;;
48215;SDS011;34005;48.844;10.098;2023-03-03T04:12:37;50.05;;;29.95;;
48215;SDS011;34005;48.844;10.098;2023-03-03T04:15:05;46.92;;;26.92;;
48215;SDS011;34005;48.844;10.098;2023-03-03T04:17:34;48.08;;;29.33;;
48215;SDS011;34005;48.844;10.098;2023-03-03T04:20:02;51.95;;;28.95;;
48215;SDS011;34005;48.844;10.098;2023-03-03T04:22:32;55.83;;;30.67;;
48215;SDS011;34005;48.844;10.098;2023-03-03T04:25:01;47.08;;;27.85;;
48215;SDS011;34005;48.844;10.098;2023-03-03T04:27:30;48.10;;;27.83;;
48215;SDS011;34005;48.844;10.098;2023-03-03T04:29:58;50.25;;;28.20;;
48215;SDS011;34005;48.844;10.098;2023-03-03T04:32:26;49.10;;;28.90;;
48215;SDS011;34005;48.844;10.098;2023-03-03T04:34:53;49.25;;;28.73;;
48215;SDS011;34005;48.844;10.098;2023-03-03T04:37:34;59.35;;;32.25;;
48215;SDS011;34005;48.844;10.098;2023-03-03T04:40:04;51.78;;;29.33;;
48215;SDS011;34005;48.844;10.098;2023-03-03T04:42:33;51.47;;;30.05;;
48215;SDS011;34005;48.844;10.098;2023-03-03T04:45:01;53.15;;;29.92;;
48215;SDS011;34005;48.844;10.098;2023-03-03T04:47:28;55.05;;;31.48;;
48215;SDS011;34005;48.844;10.098;2023-03-03T04:49:56;54.25;;;31.70;;
48215;SDS011;34005;48.844;10.098;2023-03-03T04:52:23;53.85;;;30.45;;
48215;SDS011;34005;48.844;10.098;2023-03-03T04:54:52;50.88;;;30.35;;
48215;SDS011;34005;48.844;10.098;2023-03-03T04:57:20;50.83;;;30.05;;
48215;SDS011;34005;48.844;10.098;2023-03-03T04:59:48;53.20;;;31.48;;
48215;SDS011;34005;48.844;10.098;2023-03-03T05:02:16;56.20;;;32.40;;
48215;SDS011;34005;48.844;10.098;2023-03-03T05:04:44;53.20;;;30.27;;
48215;SDS011;34005;48.844;10.098;2023-03-03T05:07:12;55.67;;;31.58;;
48215;SDS011;34005;48.844;10.098;2023-03-03T05:09:39;48.47;;;28.15;;
48215;SDS011;34005;48.844;10.098;2023-03-03T05:12:08;50.95;;;30.10;;
48215;SDS011;34005;48.844;10.098;2023-03-03T05:14:35;58.22;;;32.05;;
48215;SDS011;34005;48.844;10.098;2023-03-03T05:17:04;51.15;;;30.00;;
48215;SDS011;34005;48.844;10.098;2023-03-03T05:19:32;49.70;;;29.92;;
48215;SDS011;34005;48.844;10.098;2023-03-03T05:22:00;62.13;;;31.00;;
48215;SDS011;34005;48.844;10.098;2023-03-03T05:24:28;50.33;;;29.00;;
48215;SDS011;34005;48.844;10.098;2023-03-03T05:26:55;54.90;;;31.38;;
48215;SDS011;34005;48.844;10.098;2023-03-03T05:29:24;56.20;;;31.27;;
48215;SDS011;34005;48.844;10.098;2023-03-03T05:31:53;53.42;;;30.17;;
48215;SDS011;34005;48.844;10.098;2023-03-03T05:34:21;48.90;;;29.05;;
48215;SDS011;34005;48.844;10.098;2023-03-03T05:36:49;52.08;;;29.58;;
48215;SDS011;34005;48.844;10.098;2023-03-03T05:39:16;54.05;;;28.73;;
48215;SDS011;34005;48.844;10.098;2023-03-03T05:41:44;56.38;;;30.75;;
48215;SDS011;34005;48.844;10.098;2023-03-03T05:44:11;53.30;;;29.63;;
48215;SDS011;34005;48.844;10.098;2023-03-03T05:46:40;56.40;;;31.95;;
48215;SDS011;34005;48.844;10.098;2023-03-03T05:49:08;58.83;;;29.83;;
48215;SDS011;34005;48.844;10.098;2023-03-03T05:51:36;54.55;;;30.27;;
48215;SDS011;34005;48.844;10.098;2023-03-03T05:54:03;55.90;;;31.88;;
48215;SDS011;34005;48.844;10.098;2023-03-03T05:56:31;62.03;;;32.55;;
48215;SDS011;34005;48.844;10.098;2023-03-03T05:58:59;61.83;;;33.92;;
48215;SDS011;34005;48.844;10.098;2023-03-03T06:01:26;58.05;;;32.25;;
48215;SDS011;34005;48.844;10.098;2023-03-03T06:03:55;60.25;;;32.80;;
48215;SDS011;34005;48.844;10.098;2023-03-03T06:06:23;59.38;;;33.58;;
48215;SDS011;34005;48.844;10.098;2023-03-03T06:08:51;58.72;;;32.72;;
48215;SDS011;34005;48.844;10.098;2023-03-03T06:11:22;54.03;;;31.38;;
48215;SDS011;34005;48.844;10.098;2023-03-03T06:13:49;51.80;;;32.33;;
48215;SDS011;34005;48.844;10.098;2023-03-03T06:16:17;51.78;;;29.90;;
48215;SDS011;34005;48.844;10.098;2023-03-03T06:18:46;51.10;;;30.73;;
48215;SDS011;34005;48.844;10.098;2023-03-03T06:21:15;59.47;;;34.25;;
48215;SDS011;34005;48.844;10.098;2023-03-03T06:23:42;55.30;;;31.42;;
48215;SDS011;34005;48.844;10.098;2023-03-03T06:26:10;50.50;;;29.58;;
48215;SDS011;34005;48.844;10.098;2023-03-03T06:28:37;51.63;;;29.58;;
48215;SDS011;34005;48.844;10.098;2023-03-03T06:31:05;48.25;;;28.45;;
48215;SDS011;34005;48.844;10.098;2023-03-03T06:33:32;50.08;;;29.63;;
48215;SDS011;34005;48.844;10.098;2023-03-03T06:36:01;51.70;;;30.23;;
48215;SDS011;34005;48.844;10.098;2023-03-03T06:38:32;54.85;;;31.13;;
48215;SDS011;34005;48.844;10.098;2023-03-03T06:40:59;52.75;;;31.30;;
48215;SDS011;34005;48.844;10.098;2023-03-03T06:43:32;57.22;;;32.75;;
48215;SDS011;34005;48.844;10.098;2023-03-03T06:46:00;54.17;;;31.48;;
48215;SDS011;34005;48.844;10.098;2023-03-03T06:48:28;53.65;;;30.00;;
48215;SDS011;34005;48.844;10.098;2023-03-03T06:50:56;58.15;;;31.90;;
48215;SDS011;34005;48.844;10.098;2023-03-03T06:53:24;54.95;;;32.47;;
48215;SDS011;34005;48.844;10.098;2023-03-03T06:55:55;57.88;;;33.22;;
48215;SDS011;34005;48.844;10.098;2023-03-03T06:58:24;56.10;;;32.47;;
48215;SDS011;34005;48.844;10.098;2023-03-03T07:00:53;59.80;;;32.75;;
48215;SDS011;34005;48.844;10.098;2023-03-03T07:03:23;47.70;;;28.48;;
48215;SDS011;34005;48.844;10.098;2023-03-03T07:05:53;45.65;;;28.92;;
48215;SDS011;34005;48.844;10.098;2023-03-03T07:08:21;53.92;;;32.00;;
48215;SDS011;34005;48.844;10.098;2023-03-03T07:10:50;54.03;;;31.98;;
48215;SDS011;34005;48.844;10.098;2023-03-03T07:13:21;52.42;;;32.17;;
48215;SDS011;34005;48.844;10.098;2023-03-03T07:15:51;58.10;;;33.65;;
48215;SDS011;34005;48.844;10.098;2023-03-03T07:18:34;56.22;;;32.53;;
48215;SDS011;34005;48.844;10.098;2023-03-03T07:21:07;59.03;;;32.38;;
48215;SDS011;34005;48.844;10.098;2023-03-03T07:23:42;57.10;;;33.95;;
48215;SDS011;34005;48.844;10.098;2023-03-03T07:26:11;59.88;;;34.70;;
48215;SDS011;34005;48.844;10.098;2023-03-03T07:28:42;55.67;;;31.15;;
48215;SDS011;34005;48.844;10.098;2023-03-03T07:34:00;53.35;;;32.30;;
48215;SDS011;34005;48.844;10.098;2023-03-03T07:36:33;54.20;;;31.63;;
48215;SDS011;34005;48.844;10.098;2023-03-03T07:39:14;54.75;;;30.88;;
48215;SDS011;34005;48.844;10.098;2023-03-03T07:41:51;56.70;;;33.30;;
48215;SDS011;34005;48.844;10.098;2023-03-03T07:44:23;59.20;;;32.58;;
48215;SDS011;34005;48.844;10.098;2023-03-03T07:46:57;53.08;;;31.38;;
48215;SDS011;34005;48.844;10.098;2023-03-03T07:49:28;51.38;;;29.08;;
48215;SDS011;34005;48.844;10.098;2023-03-03T07:52:03;58.17;;;33.28;;
48215;SDS011;34005;48.844;10.098;2023-03-03T07:54:47;48.55;;;30.98;;
48215;SDS011;34005;48.844;10.098;2023-03-03T07:57:18;53.72;;;32.38;;
48215;SDS011;34005;48.844;10.098;2023-03-03T07:59:50;51.95;;;31.73;;
48215;SDS011;34005;48.844;10.098;2023-03-03T08:02:27;60.05;;;31.90;;
48215;SDS011;34005;48.844;10.098;2023-03-03T08:05:17;56.25;;;32.50;;
48215;SDS011;34005;48.844;10.098;2023-03-03T08:07:52;47.30;;;30.08;;
48215;SDS011;34005;48.844;10.098;2023-03-03T08:10:27;57.25;;;34.75;;
48215;SDS011;34005;48.844;10.098;2023-03-03T08:13:01;54.13;;;30.73;;
48215;SDS011;34005;48.844;10.098;2023-03-03T08:15:42;49.10;;;30.25;;
48215;SDS011;34005;48.844;10.098;2023-03-03T08:18:17;54.17;;;31.38;;
48215;SDS011;34005;48.844;10.098;2023-03-03T08:20:49;52.58;;;30.83;;
48215;SDS011;34005;48.844;10.098;2023-03-03T08:23:19;53.20;;;32.15;;
48215;SDS011;34005;48.844;10.098;2023-03-03T08:25:47;54.40;;;32.78;;
48215;SDS011;34005;48.844;10.098;2023-03-03T08:28:16;56.40;;;32.53;;
48215;SDS011;34005;48.844;10.098;2023-03-03T08:30:46;52.03;;;31.20;;
48215;SDS011;34005;48.844;10.098;2023-03-03T08:33:15;55.20;;;33.47;;
48215;SDS011;34005;48.844;10.098;2023-03-03T08:35:43;54.97;;;31.88;;
48215;SDS011;34005;48.844;10.098;2023-03-03T08:38:12;50.88;;;31.00;;
48215;SDS011;34005;48.844;10.098;2023-03-03T08:40:41;53.03;;;32.28;;
48215;SDS011;34005;48.844;10.098;2023-03-03T08:43:09;51.28;;;31.00;;
48215;SDS011;34005;48.844;10.098;2023-03-03T08:45:39;47.92;;;30.58;;
48215;SDS011;34005;48.844;10.098;2023-03-03T08:48:08;49.80;;;32.40;;
48215;SDS011;34005;48.844;10.098;2023-03-03T08:50:36;47.95;;;30.50;;
48215;SDS011;34005;48.844;10.098;2023-03-03T08:53:05;52.20;;;31.95;;
48215;SDS011;34005;48.844;10.098;2023-03-03T08:55:33;50.63;;;30.88;;
48215;SDS011;34005;48.844;10.098;2023-03-03T08:58:00;55.00;;;32.38;;
48215;SDS011;34005;48.844;10.098;2023-03-03T09:00:28;56.90;;;32.38;;
48215;SDS011;34005;48.844;10.098;2023-03-03T09:02:56;49.30;;;31.35;;
48215;SDS011;34005;48.844;10.098;2023-03-03T09:05:28;49.80;;;30.48;;
48215;SDS011;34005;48.844;10.098;2023-03-03T09:08:10;50.90;;;31.00;;
48215;SDS011;34005;48.844;10.098;2023-03-03T09:10:38;47.50;;;29.42;;
48215;SDS011;34005;48.844;10.098;2023-03-03T09:13:09;51.95;;;30.80;;
48215;SDS011;34005;48.844;10.098;2023-03-03T09:15:54;46.35;;;28.50;;
48215;SDS011;34005;48.844;10.098;2023-03-03T09:18:42;44.70;;;28.02;;
48215;SDS011;34005;48.844;10.098;2023-03-03T09:21:51;44.58;;;27.65;;
48215;SDS011;34005;48.844;10.098;2023-03-03T09:24:24;44.40;;;27.23;;
48215;SDS011;34005;48.844;10.098;2023-03-03T09:27:02;39.22;;;24.83;;
48215;SDS011;34005;48.844;10.098;2023-03-03T09:29:41;41.60;;;25.58;;
48215;SDS011;34005;48.844;10.098;2023-03-03T09:32:29;37.65;;;24.98;;
48215;SDS011;34005;48.844;10.098;2023-03-03T09:35:00;44.67;;;26.88;;
48215;SDS011;34005;48.844;10.098;2023-03-03T09:37:54;40.13;;;26.65;;
48215;SDS011;34005;48.844;10.098;2023-03-03T09:40:29;42.05;;;26.58;;
48215;SDS011;34005;48.844;10.098;2023-03-03T09:43:13;39.13;;;24.23;;
48215;SDS011;34005;48.844;10.098;2023-03-03T09:45:58;38.45;;;24.17;;
48215;SDS011;34005;48.844;10.098;2023-03-03T09:48:37;37.72;;;23.90;;
48215;SDS011;34005;48.844;10.098;2023-03-03T09:51:19;41.67;;;25.50;;
48215;SDS011;34005;48.844;10.098;2023-03-03T09:54:20;39.53;;;24.75;;
48215;SDS011;34005;48.844;10.098;2023-03-03T09:57:07;41.83;;;25.45;;
48215;SDS011;34005;48.844;10.098;2023-03-03T09:59:55;41.88;;;23.38;;
48215;SDS011;34005;48.844;10.098;2023-03-03T10:03:19;35.40;;;22.40;;
48215;SDS011;34005;48.844;10.098;2023-03-03T10:06:09;37.85;;;22.10;;
48215;SDS011;34005;48.844;10.098;2023-03-03T10:09:01;39.95;;;23.63;;
48215;SDS011;34005;48.844;10.098;2023-03-03T10:12:09;38.35;;;24.42;;
48215;SDS011;34005;48.844;10.098;2023-03-03T10:15:12;38.92;;;23.17;;
48215;SDS011;34005;48.844;10.098;2023-03-03T10:18:19;30.90;;;19.63;;
48215;SDS011;34005;48.844;10.098;2023-03-03T10:21:26;35.35;;;22.23;;
48215;SDS011;34005;48.844;10.098;2023-03-03T10:24:05;39.22;;;22.95;;
48215;SDS011;34005;48.844;10.098;2023-03-03T10:27:22;37.92;;;23.27;;
48215;SDS011;34005;48.844;10.098;2023-03-03T10:30:33;31.83;;;20.65;;
48215;SDS011;34005;48.844;10.098;2023-03-03T10:33:31;35.28;;;22.85;;
48215;SDS011;34005;48.844;10.098;2023-03-03T10:36:17;36.38;;;23.10;;
48215;SDS011;34005;48.844;10.098;2023-03-03T10:38:57;32.95;;;21.13;;
48215;SDS011;34005;48.844;10.098;2023-03-03T10:41:40;31.20;;;21.35;;
48215;SDS011;34005;48.844;10.098;2023-03-03T10:44:32;34.83;;;21.15;;
48215;SDS011;34005;48.844;10.098;2023-03-03T10:47:20;33.72;;;21.52;;
48215;SDS011;34005;48.844;10.098;2023-03-03T10:50:01;29.92;;;20.13;;
48215;SDS011;34005;48.844;10.098;2023-03-03T10:52:41;32.05;;;20.23;;
48215;SDS011;34005;48.844;10.098;2023-03-03T10:55:37;33.58;;;20.27;;
48215;SDS011;34005;48.844;10.098;2023-03-03T10:58:25;33.45;;;19.77;;
48215;SDS011;34005;48.844;10.098;2023-03-03T11:01:19;30.45;;;20.85;;
48215;SDS011;34005;48.844;10.098;2023-03-03T11:04:19;29.33;;;18.95;;
48215;SDS011;34005;48.844;10.098;2023-03-03T11:06:57;27.48;;;19.20;;
48215;SDS011;34005;48.844;10.098;2023-03-03T11:12:32;35.53;;;19.95;;
48215;SDS011;34005;48.844;10.098;2023-03-03T11:18:24;38.80;;;20.77;;
48215;SDS011;34005;48.844;10.098;2023-03-03T11:21:02;33.20;;;21.02;;
48215;SDS011;34005;48.844;10.098;2023-03-03T11:23:53;31.98;;;19.20;;
48215;SDS011;34005;48.844;10.098;2023-03-03T11:29:29;32.70;;;19.40;;
48215;SDS011;34005;48.844;10.098;2023-03-03T11:32:10;30.63;;;18.70;;
48215;SDS011;34005;48.844;10.098;2023-03-03T11:34:53;31.60;;;20.45;;
48215;SDS011;34005;48.844;10.098;2023-03-03T11:37:28;30.83;;;19.52;;
48215;SDS011;34005;48.844;10.098;2023-03-03T11:40:09;28.45;;;18.60;;
48215;SDS011;34005;48.844;10.098;2023-03-03T11:42:45;30.15;;;19.20;;
48215;SDS011;34005;48.844;10.098;2023-03-03T11:45:22;27.58;;;18.60;;
48215;SDS011;34005;48.844;10.098;2023-03-03T11:47:57;28.95;;;19.00;;
48215;SDS011;34005;48.844;10.098;2023-03-03T11:50:40;28.58;;;18.90;;
48215;SDS011;34005;48.844;10.098;2023-03-03T11:53:17;28.63;;;18.20;;
48215;SDS011;34005;48.844;10.098;2023-03-03T11:55:55;27.88;;;19.60;;
48215;SDS011;34005;48.844;10.098;2023-03-03T11:58:26;32.58;;;20.80;;
48215;SDS011;34005;48.844;10.098;2023-03-03T12:01:01;29.25;;;19.73;;
48215;SDS011;34005;48.844;10.098;2023-03-03T12:03:43;31.42;;;20.17;;
48215;SDS011;34005;48.844;10.098;2023-03-03T12:06:19;26.02;;;18.48;;
48215;SDS011;34005;48.844;10.098;2023-03-03T12:08:57;26.38;;;18.90;;
48215;SDS011;34005;48.844;10.098;2023-03-03T12:11:31;28.33;;;20.67;;
48215;SDS011;34005;48.844;10.098;2023-03-03T12:14:04;30.45;;;19.45;;
48215;SDS011;34005;48.844;10.098;2023-03-03T12:16:46;27.45;;;19.83;;
48215;SDS011;34005;48.844;10.098;2023-03-03T12:19:24;28.38;;;18.50;;
48215;SDS011;34005;48.844;10.098;2023-03-03T12:22:05;27.38;;;18.65;;
48215;SDS011;34005;48.844;10.098;2023-03-03T12:24:41;30.55;;;19.95;;
48215;SDS011;34005;48.844;10.098;2023-03-03T12:27:17;26.23;;;19.02;;
48215;SDS011;34005;48.844;10.098;2023-03-03T12:29:52;28.42;;;18.85;;
48215;SDS011;34005;48.844;10.098;2023-03-03T12:32:32;29.88;;;20.08;;
48215;SDS011;34005;48.844;10.098;2023-03-03T12:35:16;27.70;;;19.50;;
48215;SDS011;34005;48.844;10.098;2023-03-03T12:37:55;27.52;;;18.80;;
48215;SDS011;34005;48.844;10.098;2023-03-03T12:40:30;29.40;;;19.65;;
48215;SDS011;34005;48.844;10.098;2023-03-03T12:43:02;27.65;;;19.13;;
48215;SDS011;34005;48.844;10.098;2023-03-03T12:45:43;27.50;;;19.20;;
48215;SDS011;34005;48.844;10.098;2023-03-03T12:48:24;24.90;;;17.98;;
48215;SDS011;34005;48.844;10.098;2023-03-03T12:51:03;25.75;;;18.23;;
48215;SDS011;34005;48.844;10.098;2023-03-03T12:53:44;33.35;;;20.20;;
48215;SDS011;34005;48.844;10.098;2023-03-03T12:56:25;23.92;;;17.20;;
48215;SDS011;34005;48.844;10.098;2023-03-03T12:58:59;28.52;;;19.73;;
48215;SDS011;34005;48.844;10.098;2023-03-03T13:01:33;32.70;;;19.50;;
48215;SDS011;34005;48.844;10.098;2023-03-03T13:04:09;26.05;;;18.65;;
48215;SDS011;34005;48.844;10.098;2023-03-03T13:06:44;26.48;;;18.92;;
48215;SDS011;34005;48.844;10.098;2023-03-03T13:09:23;26.55;;;18.88;;
48215;SDS011;34005;48.844;10.098;2023-03-03T13:12:01;28.88;;;19.83;;
48215;SDS011;34005;48.844;10.098;2023-03-03T13:14:38;26.25;;;19.25;;
48215;SDS011;34005;48.844;10.098;2023-03-03T13:17:14;30.38;;;19.83;;
48215;SDS011;34005;48.844;10.098;2023-03-03T13:19:48;27.98;;;18.98;;
48215;SDS011;34005;48.844;10.098;2023-03-03T13:22:31;28.63;;;17.95;;
48215;SDS011;34005;48.844;10.098;2023-03-03T13:25:06;26.10;;;19.25;;
48215;SDS011;34005;48.844;10.098;2023-03-03T13:27:47;29.75;;;19.08;;
48215;SDS011;34005;48.844;10.098;2023-03-03T13:30:19;26.25;;;19.05;;
48215;SDS011;34005;48.844;10.098;2023-03-03T13:32:50;28.80;;;19.98;;
48215;SDS011;34005;48.844;10.098;2023-03-03T13:35:24;27.15;;;17.92;;
48215;SDS011;34005;48.844;10.098;2023-03-03T13:37:58;28.58;;;19.60;;
48215;SDS011;34005;48.844;10.098;2023-03-03T13:40:33;26.27;;;19.08;;
48215;SDS011;34005;48.844;10.098;2023-03-03T13:43:09;26.13;;;19.00;;
48215;SDS011;34005;48.844;10.098;2023-03-03T13:45:47;26.70;;;18.48;;
48215;SDS011;34005;48.844;10.098;2023-03-03T13:48:25;28.10;;;19.85;;
48215;SDS011;34005;48.844;10.098;2023-03-03T13:51:09;25.35;;;19.52;;
48215;SDS011;34005;48.844;10.098;2023-03-03T13:53:48;28.83;;;19.88;;
48215;SDS011;34005;48.844;10.098;2023-03-03T13:56:27;26.70;;;18.73;;
48215;SDS011;34005;48.844;10.098;2023-03-03T13:59:06;34.85;;;18.73;;
48215;SDS011;34005;48.844;10.098;2023-03-03T14:01:47;27.02;;;19.25;;
48215;SDS011;34005;48.844;10.098;2023-03-03T14:04:28;31.08;;;19.52;;
48215;SDS011;34005;48.844;10.098;2023-03-03T14:07:06;28.98;;;19.55;;
48215;SDS011;34005;48.844;10.098;2023-03-03T14:09:46;26.20;;;18.77;;
48215;SDS011;34005;48.844;10.098;2023-03-03T14:12:25;27.13;;;19.52;;
48215;SDS011;34005;48.844;10.098;2023-03-03T14:15:02;29.50;;;19.65;;
48215;SDS011;34005;48.844;10.098;2023-03-03T14:17:52;29.10;;;20.10;;
48215;SDS011;34005;48.844;10.098;2023-03-03T14:20:29;31.42;;;21.20;;
48215;SDS011;34005;48.844;10.098;2023-03-03T14:22:58;28.83;;;20.45;;
48215;SDS011;34005;48.844;10.098;2023-03-03T14:25:48;29.92;;;19.17;;
48215;SDS011;34005;48.844;10.098;2023-03-03T14:28:22;29.48;;;20.52;;
48215;SDS011;34005;48.844;10.098;2023-03-03T14:30:52;27.75;;;19.75;;
48215;SDS011;34005;48.844;10.098;2023-03-03T14:33:27;37.53;;;20.48;;
48215;SDS011;34005;48.844;10.098;2023-03-03T14:36:01;27.52;;;19.75;;
48215;SDS011;34005;48.844;10.098;2023-03-03T14:38:38;31.23;;;21.15;;
48215;SDS011;34005;48.844;10.098;2023-03-03T14:41:13;29.50;;;20.40;;
48215;SDS011;34005;48.844;10.098;2023-03-03T14:43:44;30.77;;;21.13;;
48215;SDS011;34005;48.844;10.098;2023-03-03T14:46:32;32.75;;;21.20;;
48215;SDS011;34005;48.844;10.098;2023-03-03T14:49:02;30.63;;;20.02;;
48215;SDS011;34005;48.844;10.098;2023-03-03T14:51:37;33.05;;;19.55;;
48215;SDS011;34005;48.844;10.098;2023-03-03T14:54:08;33.20;;;20.98;;
48215;SDS011;34005;48.844;10.098;2023-03-03T14:56:54;37.40;;;22.98;;
48215;SDS011;34005;48.844;10.098;2023-03-03T14:59:27;31.05;;;20.88;;
48215;SDS011;34005;48.844;10.098;2023-03-03T15:01:59;30.77;;;20.08;;
48215;SDS011;34005;48.844;10.098;2023-03-03T15:04:39;30.65;;;20.13;;
48215;SDS011;34005;48.844;10.098;2023-03-03T15:07:14;28.75;;;19.50;;